createdAt,value
2023-01-10T00:00:35.184Z,8.73
2023-01-10T00:03:03.295Z,8.44
2023-01-10T00:05:30.315Z,8.72
2023-01-10T00:07:59.032Z,8.46
2023-01-10T00:10:26.050Z,9.06
2023-01-10T00:13:11.417Z,8.93
2023-01-10T00:15:38.918Z,8.77
2023-01-10T00:18:05.809Z,8.99
2023-01-10T00:20:33.043Z,9.42
2023-01-10T00:23:00.313Z,8.53
2023-01-10T00:25:27.415Z,8.47
2023-01-10T00:28:20.992Z,8.64
2023-01-10T00:30:54.965Z,8.58
2023-01-10T00:33:22.403Z,8.37
2023-01-10T00:35:49.228Z,8.89
2023-01-10T00:38:16.219Z,9.28
2023-01-10T00:40:42.931Z,8.94
2023-01-10T00:43:29.425Z,8.54
2023-01-10T00:45:58.094Z,8.58
2023-01-10T00:48:25.360Z,9.09
2023-01-10T00:50:52.309Z,8.85
2023-01-10T00:53:19.628Z,8.46
2023-01-10T00:55:46.799Z,9.01
2023-01-10T00:58:15.039Z,8.73
2023-01-10T01:00:42.765Z,8.50
2023-01-10T01:03:09.689Z,8.77
2023-01-10T01:05:44.135Z,8.54
2023-01-10T01:08:12.280Z,9.13
2023-01-10T01:10:39.076Z,8.55
2023-01-10T01:13:10.781Z,8.62
2023-01-10T01:15:37.914Z,8.64
2023-01-10T01:18:05.332Z,9.35
2023-01-10T01:20:32.863Z,9.03
2023-01-10T01:23:00.856Z,9.01
2023-01-10T01:25:27.866Z,9.06
2023-01-10T01:27:54.789Z,8.75
2023-01-10T01:30:21.612Z,8.58
2023-01-10T01:32:48.503Z,9.12
2023-01-10T01:35:16.335Z,9.07
2023-01-10T01:37:43.743Z,8.80
2023-01-10T01:40:21.542Z,9.19
2023-01-10T01:42:48.960Z,9.21
2023-01-10T01:45:33.171Z,9.03
2023-01-10T01:48:29.343Z,9.38
2023-01-10T01:50:59.360Z,9.98
2023-01-10T01:53:34.500Z,9.08
2023-01-10T01:56:05.834Z,8.85
2023-01-10T01:58:54.779Z,8.94
2023-01-10T02:01:22.280Z,9.11
2023-01-10T02:03:54.334Z,8.93
2023-01-10T02:06:21.855Z,9.34
2023-01-10T02:08:56.986Z,9.20
2023-01-10T02:11:23.817Z,9.34
2023-01-10T02:13:50.667Z,8.93
2023-01-10T02:16:18.116Z,9.16
2023-01-10T02:18:45.099Z,8.89
2023-01-10T02:21:36.503Z,9.02
2023-01-10T02:24:26.753Z,8.57
2023-01-10T02:27:18.023Z,8.69
2023-01-10T02:30:13.634Z,8.78
2023-01-10T02:33:15.829Z,8.41
2023-01-10T02:36:08.768Z,8.66
2023-01-10T02:38:53.982Z,8.45
2023-01-10T02:41:33.474Z,8.51
2023-01-10T02:44:04.917Z,8.27
2023-01-10T02:46:32.403Z,8.42
2023-01-10T02:48:59.185Z,8.41
2023-01-10T02:51:33.474Z,8.17
2023-01-10T02:54:03.855Z,8.53
2023-01-10T02:56:58.779Z,8.87
2023-01-10T03:00:03.215Z,8.39
2023-01-10T03:02:35.923Z,8.81
2023-01-10T03:05:11.268Z,8.39
2023-01-10T03:07:46.429Z,8.37
2023-01-10T03:10:35.386Z,8.38
2023-01-10T03:13:03.849Z,8.77
2023-01-10T03:15:34.575Z,8.38
2023-01-10T03:18:04.296Z,8.75
2023-01-10T03:20:33.145Z,8.47
2023-01-10T03:23:03.585Z,8.50
2023-01-10T03:25:34.245Z,8.40
2023-01-10T03:28:07.003Z,8.37
2023-01-10T03:30:47.236Z,8.30
2023-01-10T03:33:18.057Z,8.91
2023-01-10T03:35:51.074Z,8.62
2023-01-10T03:38:39.477Z,8.94
2023-01-10T03:41:29.427Z,8.34
2023-01-10T03:44:34.020Z,8.97
2023-01-10T03:47:06.252Z,9.04
2023-01-10T03:49:35.304Z,9.00
2023-01-10T03:52:02.348Z,8.81
2023-01-10T03:54:29.205Z,8.67
2023-01-10T03:56:56.175Z,9.22
2023-01-10T03:59:25.701Z,9.25
2023-01-10T04:01:53.054Z,9.27
2023-01-10T04:04:20.074Z,8.57
2023-01-10T04:06:46.947Z,8.91
2023-01-10T04:09:13.916Z,8.62
2023-01-10T04:11:40.692Z,8.80
2023-01-10T04:14:07.414Z,8.72
2023-01-10T04:16:34.294Z,8.84
2023-01-10T04:19:01.076Z,8.74
2023-01-10T04:21:27.837Z,8.67
2023-01-10T04:23:54.656Z,8.62
2023-01-10T04:26:21.406Z,8.56
2023-01-10T04:28:48.246Z,8.58
2023-01-10T04:31:15.295Z,8.49
2023-01-10T04:33:43.240Z,8.49
2023-01-10T04:36:10.159Z,8.21
2023-01-10T04:38:36.948Z,8.57
2023-01-10T04:41:05.846Z,8.20
2023-01-10T04:43:32.691Z,8.53
2023-01-10T04:45:59.678Z,8.19
2023-01-10T04:48:27.190Z,8.34
2023-01-10T04:50:54.576Z,8.37
2023-01-10T04:53:21.927Z,8.19
2023-01-10T04:55:48.948Z,8.26
2023-01-10T04:58:15.890Z,8.43
2023-01-10T05:00:42.771Z,8.52
2023-01-10T05:03:09.618Z,8.26
2023-01-10T05:05:36.526Z,8.24
2023-01-10T05:08:03.529Z,8.46
2023-01-10T05:10:30.355Z,8.07
2023-01-10T05:12:57.190Z,8.23
2023-01-10T05:15:24.057Z,7.84
2023-01-10T05:17:51.418Z,8.31
2023-01-10T05:20:18.431Z,8.50
2023-01-10T05:22:45.949Z,8.33
2023-01-10T05:25:12.794Z,7.95
2023-01-10T05:27:42.543Z,8.32
2023-01-10T05:30:11.493Z,8.41
2023-01-10T05:32:38.339Z,8.24
2023-01-10T05:35:05.622Z,8.26
2023-01-10T05:37:32.309Z,8.07
2023-01-10T05:39:59.107Z,8.23
2023-01-10T05:42:25.955Z,7.65
2023-01-10T05:44:52.818Z,8.11
2023-01-10T05:47:19.509Z,7.92
2023-01-10T05:49:46.285Z,7.88
2023-01-10T05:52:12.977Z,7.72
2023-01-10T05:54:41.086Z,8.14
2023-01-10T05:57:07.917Z,7.67
2023-01-10T05:59:34.976Z,7.77
2023-01-10T06:02:01.776Z,7.58
2023-01-10T06:04:28.582Z,7.87
2023-01-10T06:06:55.405Z,7.82
2023-01-10T06:09:22.147Z,7.76
2023-01-10T06:11:49.118Z,7.81
2023-01-10T06:14:19.525Z,7.77
2023-01-10T06:16:47.432Z,7.97
2023-01-10T06:19:14.646Z,7.69
2023-01-10T06:21:41.460Z,7.66
2023-01-10T06:24:08.842Z,7.46
2023-01-10T06:26:35.582Z,7.73
2023-01-10T06:29:02.267Z,7.58
2023-01-10T06:31:29.170Z,7.54
2023-01-10T06:33:56.249Z,7.49
2023-01-10T06:36:23.089Z,7.56
2023-01-10T06:38:49.864Z,7.11
2023-01-10T06:41:16.708Z,7.47
2023-01-10T06:43:45.733Z,7.81
2023-01-10T06:46:14.011Z,7.67
2023-01-10T06:48:40.777Z,7.53
2023-01-10T06:51:07.622Z,7.39
2023-01-10T06:53:34.587Z,7.33
2023-01-10T06:56:01.540Z,7.47
2023-01-10T06:58:32.469Z,7.46
2023-01-10T07:00:59.531Z,7.37
2023-01-10T07:03:26.474Z,7.03
2023-01-10T07:05:53.224Z,7.37
2023-01-10T07:08:19.923Z,7.48
2023-01-10T07:10:46.761Z,7.33
2023-01-10T07:13:13.595Z,7.31
2023-01-10T07:15:40.355Z,7.44
2023-01-10T07:18:07.350Z,7.62
2023-01-10T07:20:34.118Z,7.54
2023-01-10T07:23:01.141Z,7.36
2023-01-10T07:25:29.233Z,7.30
2023-01-10T07:27:57.296Z,7.47
2023-01-10T07:30:25.462Z,7.88
2023-01-10T07:32:58.910Z,7.41
2023-01-10T07:35:26.171Z,7.50
2023-01-10T07:37:52.886Z,7.43
2023-01-10T07:40:19.722Z,7.54
2023-01-10T07:42:46.492Z,7.37
2023-01-10T07:45:13.328Z,7.71
2023-01-10T07:47:40.401Z,7.78
2023-01-10T07:50:07.676Z,7.64
2023-01-10T07:52:34.718Z,7.65
2023-01-10T07:55:01.640Z,7.51
2023-01-10T07:57:28.371Z,7.46
2023-01-10T07:59:55.092Z,7.63
2023-01-10T08:02:21.947Z,7.64
2023-01-10T08:04:48.800Z,7.90
2023-01-10T08:07:15.582Z,7.85
2023-01-10T08:09:42.239Z,7.89
2023-01-10T08:12:08.982Z,7.58
2023-01-10T08:14:35.735Z,7.60
2023-01-10T08:17:02.488Z,7.75
2023-01-10T08:19:29.222Z,7.86
2023-01-10T08:21:55.972Z,7.71
2023-01-10T08:24:22.891Z,8.28
2023-01-10T08:26:49.536Z,7.81
2023-01-10T08:29:16.475Z,7.92
2023-01-10T08:31:43.626Z,8.11
2023-01-10T08:34:13.238Z,8.15
2023-01-10T08:36:40.167Z,8.21
2023-01-10T08:39:06.905Z,8.10
2023-01-10T08:41:33.761Z,8.06
2023-01-10T08:44:00.980Z,8.14
2023-01-10T08:46:27.855Z,8.21
2023-01-10T08:48:54.786Z,8.13
2023-01-10T08:51:21.738Z,8.15
2023-01-10T08:53:48.752Z,8.38
2023-01-10T08:56:15.545Z,8.27
2023-01-10T08:58:42.317Z,8.24
2023-01-10T09:01:09.653Z,8.30
2023-01-10T09:03:36.382Z,8.24
2023-01-10T09:06:03.440Z,8.50
2023-01-10T09:08:30.488Z,8.29
2023-01-10T09:11:01.196Z,8.27
2023-01-10T09:13:29.379Z,8.37
2023-01-10T09:15:56.957Z,8.44
2023-01-10T09:18:24.472Z,8.45
2023-01-10T09:20:51.753Z,8.37
2023-01-10T09:23:20.494Z,8.69
2023-01-10T09:25:49.409Z,8.46
2023-01-10T09:28:16.736Z,8.81
2023-01-10T09:30:44.591Z,8.85
2023-01-10T09:33:12.047Z,8.66
2023-01-10T09:35:40.393Z,8.76
2023-01-10T09:38:10.712Z,8.55
2023-01-10T09:41:01.077Z,8.66
2023-01-10T09:43:33.848Z,9.05
2023-01-10T09:46:13.376Z,8.81
2023-01-10T09:48:43.096Z,8.87
2023-01-10T09:51:24.017Z,8.95
2023-01-10T09:53:53.785Z,8.87
2023-01-10T09:56:23.312Z,8.77
2023-01-10T09:58:50.173Z,8.82
2023-01-10T10:01:43.024Z,8.86
2023-01-10T10:04:22.174Z,8.86
2023-01-10T10:06:52.398Z,9.29
2023-01-10T10:09:23.796Z,9.24
2023-01-10T10:12:24.630Z,9.21
2023-01-10T10:15:00.783Z,9.20
2023-01-10T10:17:33.604Z,9.05
2023-01-10T10:20:22.153Z,9.39
2023-01-10T10:23:04.131Z,9.58
2023-01-10T10:25:44.091Z,9.76
2023-01-10T10:28:16.923Z,9.70
2023-01-10T10:31:02.177Z,9.39
2023-01-10T10:33:57.673Z,9.27
2023-01-10T10:36:53.646Z,9.50
2023-01-10T10:39:44.093Z,9.24
2023-01-10T10:42:17.149Z,9.92
2023-01-10T10:44:48.000Z,9.72
2023-01-10T10:47:20.287Z,9.62
2023-01-10T10:49:50.841Z,10.00
2023-01-10T10:52:31.625Z,9.84
2023-01-10T10:54:59.035Z,9.60
2023-01-10T10:57:28.328Z,10.02
2023-01-10T10:59:56.675Z,9.96
2023-01-10T11:02:31.559Z,10.37
2023-01-10T11:05:02.271Z,10.08
2023-01-10T11:07:34.697Z,10.36
2023-01-10T11:10:17.053Z,10.19
2023-01-10T11:12:48.594Z,10.21
2023-01-10T11:15:35.502Z,10.47
2023-01-10T11:18:24.105Z,10.05
2023-01-10T11:21:00.882Z,10.62
2023-01-10T11:23:39.934Z,10.24
2023-01-10T11:26:24.474Z,9.97
2023-01-10T11:29:24.547Z,10.01
2023-01-10T11:31:54.778Z,10.19
2023-01-10T11:34:34.199Z,10.07
2023-01-10T11:37:18.801Z,10.20
2023-01-10T11:39:45.901Z,10.06
2023-01-10T11:42:24.970Z,9.95
2023-01-10T11:44:51.691Z,10.30
2023-01-10T11:47:21.078Z,10.02
2023-01-10T11:49:49.085Z,10.35
2023-01-10T11:52:28.173Z,10.52
2023-01-10T11:54:58.423Z,10.22
2023-01-10T11:57:27.538Z,10.18
2023-01-10T12:00:15.147Z,10.64
2023-01-10T12:02:46.606Z,10.56
2023-01-10T12:05:23.771Z,10.06
2023-01-10T12:08:06.129Z,10.05
2023-01-10T12:10:34.341Z,10.35
2023-01-10T12:13:17.234Z,10.40
2023-01-10T12:15:44.262Z,10.32
2023-01-10T12:18:11.253Z,10.45
2023-01-10T12:20:49.772Z,10.52
2023-01-10T12:23:19.023Z,11.10
2023-01-10T12:25:46.731Z,11.25
2023-01-10T12:28:28.922Z,10.65
2023-01-10T12:30:59.306Z,10.47
2023-01-10T12:33:35.164Z,10.25
2023-01-10T12:36:04.021Z,10.84
2023-01-10T12:39:01.482Z,10.71
2023-01-10T12:41:53.264Z,10.52
2023-01-10T12:44:27.234Z,10.12
2023-01-10T12:47:08.348Z,10.31
2023-01-10T12:49:44.946Z,10.63
2023-01-10T12:52:23.224Z,10.23
2023-01-10T12:54:50.355Z,10.50
2023-01-10T12:57:40.817Z,10.18
2023-01-10T13:00:25.022Z,10.54
2023-01-10T13:02:55.165Z,10.31
2023-01-10T13:05:26.796Z,9.93
2023-01-10T13:07:59.396Z,10.23
2023-01-10T13:10:27.082Z,9.93
2023-01-10T13:13:35.548Z,10.34
2023-01-10T13:16:33.979Z,10.31
2023-01-10T13:19:09.587Z,10.15
2023-01-10T13:21:38.233Z,10.31
2023-01-10T13:24:07.211Z,10.43
2023-01-10T13:26:59.407Z,9.92
2023-01-10T13:29:30.208Z,10.13
2023-01-10T13:31:59.673Z,10.07
2023-01-10T13:34:32.676Z,9.93
2023-01-10T13:37:03.719Z,10.05
2023-01-10T13:39:51.748Z,9.77
2023-01-10T13:42:50.319Z,9.67
2023-01-10T13:45:16.984Z,9.63
2023-01-10T13:47:44.192Z,9.93
2023-01-10T13:50:23.349Z,9.65
2023-01-10T13:52:54.286Z,9.95
2023-01-10T13:55:30.407Z,9.69
2023-01-10T13:58:17.545Z,9.94
2023-01-10T14:01:02.618Z,9.46
2023-01-10T14:03:41.576Z,9.77
2023-01-10T14:06:29.636Z,9.64
2023-01-10T14:09:01.932Z,10.04
2023-01-10T14:11:44.029Z,9.63
2023-01-10T14:14:37.465Z,9.62
2023-01-10T14:17:14.849Z,9.44
2023-01-10T14:19:44.523Z,9.37
2023-01-10T14:22:31.274Z,9.07
2023-01-10T14:25:00.262Z,9.18
2023-01-10T14:27:37.942Z,9.18
2023-01-10T14:30:06.279Z,9.61
2023-01-10T14:32:32.898Z,9.14
2023-01-10T14:35:05.758Z,9.22
2023-01-10T14:37:38.410Z,9.37
2023-01-10T14:40:11.151Z,9.19
2023-01-10T14:42:38.258Z,9.25
2023-01-10T14:45:27.533Z,9.38
2023-01-10T14:47:54.473Z,9.31
2023-01-10T14:50:32.330Z,9.45
2023-01-10T14:53:00.554Z,9.12
2023-01-10T14:55:28.111Z,9.06
2023-01-10T14:58:00.477Z,9.19
2023-01-10T15:00:33.345Z,9.36
2023-01-10T15:03:04.035Z,9.55
2023-01-10T15:05:45.466Z,9.37
2023-01-10T15:08:30.818Z,8.89
2023-01-10T15:11:06.809Z,9.35
2023-01-10T15:13:36.887Z,9.61
2023-01-10T15:16:05.638Z,8.85
2023-01-10T15:18:40.041Z,9.24
2023-01-10T15:21:07.139Z,9.16
2023-01-10T15:23:39.481Z,9.02
2023-01-10T15:26:10.851Z,9.30
2023-01-10T15:28:37.983Z,9.28
2023-01-10T15:31:05.879Z,9.41
2023-01-10T15:33:35.705Z,9.32
2023-01-10T15:36:07.929Z,9.13
2023-01-10T15:38:38.440Z,9.09
2023-01-10T15:41:06.895Z,8.88
2023-01-10T15:43:35.214Z,9.09
2023-01-10T15:46:04.590Z,9.10
2023-01-10T15:48:33.926Z,9.25
2023-01-10T15:51:28.743Z,8.93
2023-01-10T15:54:20.515Z,9.46
2023-01-10T15:56:49.681Z,8.96
2023-01-10T15:59:33.104Z,9.25
2023-01-10T16:02:12.914Z,9.32
2023-01-10T16:04:40.528Z,9.01
2023-01-10T16:07:22.857Z,9.11
2023-01-10T16:10:04.393Z,9.20
2023-01-10T16:12:56.370Z,9.24
2023-01-10T16:15:27.601Z,9.00
2023-01-10T16:17:55.041Z,9.13
2023-01-10T16:20:32.405Z,9.31
2023-01-10T16:22:59.964Z,9.32
2023-01-10T16:25:35.962Z,9.43
2023-01-10T16:28:02.877Z,9.23
2023-01-10T16:30:32.580Z,9.37
2023-01-10T16:33:01.287Z,9.15
2023-01-10T16:35:28.159Z,9.42
2023-01-10T16:37:57.742Z,9.12
2023-01-10T16:40:35.679Z,9.19
2023-01-10T16:43:18.314Z,9.41
2023-01-10T16:45:45.480Z,9.34
2023-01-10T16:48:13.088Z,9.40
2023-01-10T16:50:41.392Z,9.48
2023-01-10T16:53:11.848Z,9.20
2023-01-10T16:55:41.297Z,9.79
2023-01-10T16:58:09.652Z,9.90
2023-01-10T17:00:37.933Z,9.75
2023-01-10T17:03:10.779Z,9.45
2023-01-10T17:05:38.574Z,9.88
2023-01-10T17:08:05.844Z,9.65
2023-01-10T17:10:35.320Z,9.51
2023-01-10T17:13:04.480Z,9.80
2023-01-10T17:15:32.199Z,9.84
2023-01-10T17:17:59.132Z,9.58
2023-01-10T17:20:26.006Z,10.00
2023-01-10T17:22:52.938Z,9.64
2023-01-10T17:25:20.275Z,9.89
2023-01-10T17:27:47.182Z,9.95
2023-01-10T17:30:17.147Z,10.02
2023-01-10T17:32:44.062Z,9.80
2023-01-10T17:35:11.079Z,9.76
2023-01-10T17:37:38.731Z,10.22
2023-01-10T17:40:06.050Z,10.01
2023-01-10T17:42:35.715Z,10.26
2023-01-10T17:45:03.148Z,9.93
2023-01-10T17:47:30.062Z,9.84
2023-01-10T17:49:57.000Z,10.09
2023-01-10T17:52:27.593Z,9.89
2023-01-10T17:54:54.347Z,9.83
2023-01-10T17:57:22.560Z,9.90
2023-01-10T17:59:49.291Z,10.22
2023-01-10T18:02:18.442Z,10.05
2023-01-10T18:04:45.983Z,10.25
2023-01-10T18:07:13.226Z,9.88
2023-01-10T18:09:40.101Z,9.82
2023-01-10T18:12:07.211Z,10.09
2023-01-10T18:14:36.844Z,10.21
2023-01-10T18:17:09.131Z,9.79
2023-01-10T18:19:36.304Z,10.02
2023-01-10T18:22:24.603Z,10.14
2023-01-10T18:24:53.038Z,9.96
2023-01-10T18:27:23.717Z,10.22
2023-01-10T18:29:51.754Z,10.27
2023-01-10T18:32:19.243Z,10.04
2023-01-10T18:34:49.849Z,10.26
2023-01-10T18:37:18.283Z,10.26
2023-01-10T18:39:45.349Z,9.98
2023-01-10T18:42:12.547Z,10.21
2023-01-10T18:44:39.826Z,10.16
2023-01-10T18:47:07.719Z,10.29
2023-01-10T18:49:34.520Z,10.55
2023-01-10T18:52:01.389Z,10.55
2023-01-10T18:54:28.207Z,10.52
2023-01-10T18:56:55.988Z,10.30
2023-01-10T18:59:23.157Z,10.63
2023-01-10T19:01:50.098Z,10.65
2023-01-10T19:04:18.607Z,10.84
2023-01-10T19:06:48.703Z,10.47
2023-01-10T19:09:15.447Z,10.64
2023-01-10T19:11:42.180Z,10.60
2023-01-10T19:14:08.901Z,10.68
2023-01-10T19:16:35.978Z,10.74
2023-01-10T19:19:05.260Z,10.60
2023-01-10T19:21:33.775Z,10.64
2023-01-10T19:24:02.550Z,10.97
2023-01-10T19:26:29.434Z,10.73
2023-01-10T19:28:56.341Z,10.63
2023-01-10T19:31:26.139Z,10.78
2023-01-10T19:33:53.847Z,10.62
2023-01-10T19:36:22.770Z,11.03
2023-01-10T19:38:56.921Z,10.55
2023-01-10T19:41:25.433Z,11.20
2023-01-10T19:43:59.808Z,11.12
2023-01-10T19:46:28.373Z,11.01
2023-01-10T19:48:55.860Z,11.02
2023-01-10T19:51:22.669Z,10.99
2023-01-10T19:53:49.384Z,11.16
2023-01-10T19:56:19.963Z,11.18
2023-01-10T19:58:46.985Z,10.92
2023-01-10T20:01:19.846Z,11.19
2023-01-10T20:03:47.793Z,10.80
2023-01-10T20:06:21.013Z,11.41
2023-01-10T20:08:48.780Z,11.34
2023-01-10T20:11:16.250Z,11.35
2023-01-10T20:13:45.245Z,11.26
2023-01-10T20:16:13.972Z,11.10
2023-01-10T20:18:41.601Z,10.90
2023-01-10T20:21:09.816Z,11.03
2023-01-10T20:23:37.909Z,11.09
2023-01-10T20:26:12.281Z,11.27
2023-01-10T20:28:40.358Z,11.09
2023-01-10T20:31:14.015Z,11.17
2023-01-10T20:33:41.073Z,11.07
2023-01-10T20:36:14.169Z,11.16
2023-01-10T20:38:41.367Z,11.36
2023-01-10T20:41:16.999Z,11.19
2023-01-10T20:43:44.720Z,11.51
2023-01-10T20:46:17.234Z,11.33
2023-01-10T20:49:03.206Z,11.18
2023-01-10T20:51:36.461Z,11.33
2023-01-10T20:54:05.833Z,11.72
2023-01-10T20:56:33.213Z,11.56
2023-01-10T20:59:00.090Z,11.11
2023-01-10T21:01:34.684Z,11.59
2023-01-10T21:04:05.579Z,11.47
2023-01-10T21:06:33.275Z,11.65
2023-01-10T21:09:00.606Z,11.36
2023-01-10T21:11:27.593Z,11.45
2023-01-10T21:13:54.410Z,11.89
2023-01-10T21:16:22.559Z,11.65
2023-01-10T21:18:50.614Z,11.81
2023-01-10T21:21:22.727Z,11.90
2023-01-10T21:23:49.809Z,11.74
2023-01-10T21:26:16.717Z,11.43
2023-01-10T21:28:48.385Z,11.76
2023-01-10T21:31:18.182Z,12.11
2023-01-10T21:33:45.430Z,11.71
2023-01-10T21:36:13.547Z,12.27
2023-01-10T21:38:41.136Z,11.99
2023-01-10T21:41:39.235Z,12.09
2023-01-10T21:44:07.346Z,12.41
2023-01-10T21:46:34.655Z,11.98
2023-01-10T21:49:02.393Z,12.23
2023-01-10T21:51:29.119Z,11.94
2023-01-10T21:53:55.959Z,12.14
2023-01-10T21:56:23.495Z,12.35
2023-01-10T21:58:50.709Z,12.27
2023-01-10T22:01:17.936Z,12.36
2023-01-10T22:03:45.717Z,12.17
2023-01-10T22:06:13.160Z,12.20
2023-01-10T22:08:39.922Z,12.13
2023-01-10T22:11:07.226Z,12.03
2023-01-10T22:13:34.861Z,12.03
2023-01-10T22:16:02.161Z,12.52
2023-01-10T22:18:30.631Z,12.45
2023-01-10T22:20:58.278Z,12.49
2023-01-10T22:23:25.224Z,12.30
2023-01-10T22:26:14.476Z,12.08
2023-01-10T22:28:41.703Z,12.31
2023-01-10T22:31:08.941Z,12.51
2023-01-10T22:33:37.479Z,12.53
2023-01-10T22:36:18.398Z,12.70
2023-01-10T22:38:46.214Z,12.70
2023-01-10T22:41:15.839Z,12.60
2023-01-10T22:43:42.682Z,12.43
2023-01-10T22:46:09.689Z,12.24
2023-01-10T22:48:37.653Z,12.52
2023-01-10T22:51:05.649Z,12.41
2023-01-10T22:53:32.843Z,12.79
2023-01-10T22:56:00.868Z,12.45
2023-01-10T22:58:28.154Z,12.42
2023-01-10T23:00:54.889Z,12.50
2023-01-10T23:03:21.731Z,12.51
2023-01-10T23:05:48.486Z,12.66
2023-01-10T23:08:15.223Z,12.63
2023-01-10T23:10:42.075Z,12.35
2023-01-10T23:13:08.960Z,12.53
2023-01-10T23:15:35.867Z,12.79
2023-01-10T23:18:02.898Z,12.59
2023-01-10T23:20:29.776Z,12.50
2023-01-10T23:22:56.563Z,12.42
2023-01-10T23:25:23.768Z,12.69
2023-01-10T23:27:51.067Z,12.46
2023-01-10T23:30:17.868Z,12.48
2023-01-10T23:32:44.772Z,12.69
2023-01-10T23:35:11.635Z,12.79
2023-01-10T23:37:38.366Z,12.63
2023-01-10T23:40:06.176Z,12.68
2023-01-10T23:42:32.910Z,12.91
2023-01-10T23:44:59.617Z,12.73
2023-01-10T23:47:26.421Z,13.20
2023-01-10T23:49:53.200Z,13.08
2023-01-10T23:52:20.020Z,12.84
2023-01-10T23:54:46.661Z,12.60
2023-01-10T23:57:13.518Z,12.98
2023-01-10T23:59:40.378Z,12.96
